Willow, Michigan
Current Conditions -  °F | °C
As of 7:53 AM on Friday 28 Nov 2014 (Local Time) from KDTW Reporting Station
Overcast Overcast  
Wind Chill: 19°   Ceiling: 13000
Heat Index: 19°   Visibility: 10mi
Dew Point:   Wind: 0mph
Humidity: 62%   Direction: NA
Pressure: 30.36"   Gusts: NA
Location:  42.1166°N, 83.4023°W
Report Text: KDTW 281253Z 00000KT 10SM SCT030 BKN130 OVC190 M07/M13 A3036 RMK AO2 SLP290 T10721133 $
Loading
Personal Weather Stations






























Interactive Weather Map New forecast layout! Learn more

10-Day Weather Forecast

Advertisements
Track Severe Weather on mobile